sensor_id;sensor_type;location;lat;lon;timestamp;pressure;altitude;pressure_sealevel;temperature;humidity
64141;BME280;50436;50.618;7.932;2024-01-25T00:02:27;97507.88;;;5.41;100.00
64141;BME280;50436;50.618;7.932;2024-01-25T00:05:13;97489.91;;;5.43;100.00
64141;BME280;50436;50.618;7.932;2024-01-25T00:07:59;97484.75;;;5.35;100.00
64141;BME280;50436;50.618;7.932;2024-01-25T00:10:44;97477.41;;;5.37;100.00
64141;BME280;50436;50.618;7.932;2024-01-25T00:13:30;97487.84;;;5.38;100.00
64141;BME280;50436;50.618;7.932;2024-01-25T00:16:16;97486.03;;;5.39;100.00
64141;BME280;50436;50.618;7.932;2024-01-25T00:19:02;97469.44;;;5.37;100.00
64141;BME280;50436;50.618;7.932;2024-01-25T00:21:48;97479.69;;;5.40;100.00
64141;BME280;50436;50.618;7.932;2024-01-25T00:24:34;97486.84;;;5.39;100.00
64141;BME280;50436;50.618;7.932;2024-01-25T00:27:20;97489.50;;;5.39;100.00
64141;BME280;50436;50.618;7.932;2024-01-25T00:30:06;97486.03;;;5.39;100.00
64141;BME280;50436;50.618;7.932;2024-01-25T00:32:52;97485.19;;;5.38;100.00
64141;BME280;50436;50.618;7.932;2024-01-25T00:35:38;97483.72;;;5.36;100.00
64141;BME280;50436;50.618;7.932;2024-01-25T00:38:24;97488.66;;;5.39;100.00
64141;BME280;50436;50.618;7.932;2024-01-25T00:41:16;97480.91;;;5.37;100.00
64141;BME280;50436;50.618;7.932;2024-01-25T00:44:03;97489.84;;;5.36;100.00
64141;BME280;50436;50.618;7.932;2024-01-25T00:46:49;97492.34;;;5.38;100.00
64141;BME280;50436;50.618;7.932;2024-01-25T00:49:36;97482.28;;;5.33;100.00
64141;BME280;50436;50.618;7.932;2024-01-25T00:52:23;97487.59;;;5.33;100.00
64141;BME280;50436;50.618;7.932;2024-01-25T00:55:09;97487.78;;;5.31;100.00
64141;BME280;50436;50.618;7.932;2024-01-25T00:57:56;97486.91;;;5.24;100.00
64141;BME280;50436;50.618;7.932;2024-01-25T01:00:43;97505.53;;;5.31;100.00
64141;BME280;50436;50.618;7.932;2024-01-25T01:03:29;97491.25;;;5.32;100.00
64141;BME280;50436;50.618;7.932;2024-01-25T01:06:15;97496.56;;;5.32;100.00
64141;BME280;50436;50.618;7.932;2024-01-25T01:09:01;97512.50;;;5.32;100.00
64141;BME280;50436;50.618;7.932;2024-01-25T01:11:47;97500.03;;;5.32;100.00
64141;BME280;50436;50.618;7.932;2024-01-25T01:14:33;97501.00;;;5.25;100.00
64141;BME280;50436;50.618;7.932;2024-01-25T01:17:20;97506.56;;;5.30;100.00
64141;BME280;50436;50.618;7.932;2024-01-25T01:20:06;97505.91;;;5.28;100.00
64141;BME280;50436;50.618;7.932;2024-01-25T01:22:52;97508.41;;;5.29;100.00
64141;BME280;50436;50.618;7.932;2024-01-25T01:25:38;97513.03;;;5.27;100.00
64141;BME280;50436;50.618;7.932;2024-01-25T01:28:24;97514.69;;;5.28;100.00
64141;BME280;50436;50.618;7.932;2024-01-25T01:31:09;97512.84;;;5.29;100.00
64141;BME280;50436;50.618;7.932;2024-01-25T01:33:55;97496.50;;;5.25;100.00
64141;BME280;50436;50.618;7.932;2024-01-25T01:36:41;97514.06;;;5.26;100.00
64141;BME280;50436;50.618;7.932;2024-01-25T01:39:29;97524.31;;;5.29;100.00
64141;BME280;50436;50.618;7.932;2024-01-25T01:42:15;97528.34;;;5.25;100.00
64141;BME280;50436;50.618;7.932;2024-01-25T01:45:01;97509.16;;;5.23;100.00
64141;BME280;50436;50.618;7.932;2024-01-25T01:47:47;97516.28;;;5.23;100.00
64141;BME280;50436;50.618;7.932;2024-01-25T01:50:33;97523.44;;;5.22;100.00
64141;BME280;50436;50.618;7.932;2024-01-25T01:53:19;97529.56;;;5.23;100.00
64141;BME280;50436;50.618;7.932;2024-01-25T01:56:05;97512.97;;;5.21;100.00
64141;BME280;50436;50.618;7.932;2024-01-25T01:58:55;97513.16;;;5.19;100.00
64141;BME280;50436;50.618;7.932;2024-01-25T02:01:41;97520.50;;;5.17;100.00
64141;BME280;50436;50.618;7.932;2024-01-25T02:04:27;97519.88;;;5.15;100.00
64141;BME280;50436;50.618;7.932;2024-01-25T02:07:13;97510.00;;;5.09;100.00
64141;BME280;50436;50.618;7.932;2024-01-25T02:10:02;97537.81;;;5.13;100.00
64141;BME280;50436;50.618;7.932;2024-01-25T02:12:48;97530.22;;;5.10;100.00
64141;BME280;50436;50.618;7.932;2024-01-25T02:15:34;97531.88;;;5.11;100.00
64141;BME280;50436;50.618;7.932;2024-01-25T02:18:23;97533.06;;;5.09;100.00
64141;BME280;50436;50.618;7.932;2024-01-25T02:21:09;97531.03;;;5.11;100.00
64141;BME280;50436;50.618;7.932;2024-01-25T02:23:55;97534.91;;;5.08;100.00
64141;BME280;50436;50.618;7.932;2024-01-25T02:26:41;97554.50;;;5.07;100.00
64141;BME280;50436;50.618;7.932;2024-01-25T02:29:26;97540.94;;;5.02;100.00
64141;BME280;50436;50.618;7.932;2024-01-25T02:32:12;97532.72;;;4.97;100.00
64141;BME280;50436;50.618;7.932;2024-01-25T02:34:58;97541.16;;;5.00;100.00
64141;BME280;50436;50.618;7.932;2024-01-25T02:37:44;97539.50;;;4.99;100.00
64141;BME280;50436;50.618;7.932;2024-01-25T02:40:30;97544.00;;;4.99;100.00
64141;BME280;50436;50.618;7.932;2024-01-25T02:43:15;97550.75;;;5.01;100.00
64141;BME280;50436;50.618;7.932;2024-01-25T02:46:01;97541.59;;;4.89;100.00
64141;BME280;50436;50.618;7.932;2024-01-25T02:48:47;97552.06;;;4.91;100.00
64141;BME280;50436;50.618;7.932;2024-01-25T02:51:33;97545.28;;;4.88;100.00
64141;BME280;50436;50.618;7.932;2024-01-25T02:54:19;97533.97;;;4.80;100.00
64141;BME280;50436;50.618;7.932;2024-01-25T02:57:05;97550.97;;;4.85;100.00
64141;BME280;50436;50.618;7.932;2024-01-25T02:59:51;97549.94;;;4.86;100.00
64141;BME280;50436;50.618;7.932;2024-01-25T03:02:40;97550.78;;;4.87;100.00
64141;BME280;50436;50.618;7.932;2024-01-25T03:05:26;97547.09;;;4.88;100.00
64141;BME280;50436;50.618;7.932;2024-01-25T03:08:12;97550.97;;;4.85;100.00
64141;BME280;50436;50.618;7.932;2024-01-25T03:10:57;97542.19;;;4.85;100.00
64141;BME280;50436;50.618;7.932;2024-01-25T03:13:43;97539.97;;;4.88;100.00
64141;BME280;50436;50.618;7.932;2024-01-25T03:16:29;97549.41;;;4.91;100.00
64141;BME280;50436;50.618;7.932;2024-01-25T03:19:15;97550.78;;;4.87;100.00
64141;BME280;50436;50.618;7.932;2024-01-25T03:22:01;97548.13;;;4.87;100.00
64141;BME280;50436;50.618;7.932;2024-01-25T03:24:47;97552.31;;;4.81;100.00
64141;BME280;50436;50.618;7.932;2024-01-25T03:27:33;97560.28;;;4.81;100.00
64141;BME280;50436;50.618;7.932;2024-01-25T03:30:19;97539.06;;;4.81;100.00
64141;BME280;50436;50.618;7.932;2024-01-25T03:33:05;97542.94;;;4.79;100.00
64141;BME280;50436;50.618;7.932;2024-01-25T03:35:51;97538.44;;;4.79;100.00
64141;BME280;50436;50.618;7.932;2024-01-25T03:38:37;97528.13;;;4.69;100.00
64141;BME280;50436;50.618;7.932;2024-01-25T03:41:23;97532.81;;;4.67;100.00
64141;BME280;50436;50.618;7.932;2024-01-25T03:44:09;97530.50;;;4.64;100.00
64141;BME280;50436;50.618;7.932;2024-01-25T03:46:55;97530.16;;;4.67;100.00
64141;BME280;50436;50.618;7.932;2024-01-25T03:49:40;97536.09;;;4.69;100.00
64141;BME280;50436;50.618;7.932;2024-01-25T03:52:26;97531.13;;;4.66;100.00
64141;BME280;50436;50.618;7.932;2024-01-25T03:55:15;97534.78;;;4.65;100.00
64141;BME280;50436;50.618;7.932;2024-01-25T03:58:01;97540.19;;;4.72;100.00
64141;BME280;50436;50.618;7.932;2024-01-25T04:00:47;97545.28;;;4.73;100.00
64141;BME280;50436;50.618;7.932;2024-01-25T04:03:33;97543.84;;;4.71;100.00
64141;BME280;50436;50.618;7.932;2024-01-25T04:06:19;97551.53;;;4.66;100.00
64141;BME280;50436;50.618;7.932;2024-01-25T04:09:05;97560.25;;;4.60;100.00
64141;BME280;50436;50.618;7.932;2024-01-25T04:11:51;97558.13;;;4.55;100.00
64141;BME280;50436;50.618;7.932;2024-01-25T04:14:36;97557.22;;;4.48;100.00
64141;BME280;50436;50.618;7.932;2024-01-25T04:17:22;97557.22;;;4.48;100.00
64141;BME280;50436;50.618;7.932;2024-01-25T04:20:08;97564.16;;;4.49;100.00
64141;BME280;50436;50.618;7.932;2024-01-25T04:22:54;97567.81;;;4.48;100.00
64141;BME280;50436;50.618;7.932;2024-01-25T04:25:41;97577.41;;;4.49;100.00
64141;BME280;50436;50.618;7.932;2024-01-25T04:28:27;97568.28;;;4.52;100.00
64141;BME280;50436;50.618;7.932;2024-01-25T04:31:12;97588.19;;;4.47;100.00
64141;BME280;50436;50.618;7.932;2024-01-25T04:33:58;97577.22;;;4.51;100.00
64141;BME280;50436;50.618;7.932;2024-01-25T04:36:44;97584.34;;;4.50;100.00
64141;BME280;50436;50.618;7.932;2024-01-25T04:39:30;97580.44;;;4.46;100.00
64141;BME280;50436;50.618;7.932;2024-01-25T04:42:16;97583.09;;;4.46;100.00
64141;BME280;50436;50.618;7.932;2024-01-25T04:45:03;97587.38;;;4.47;100.00
64141;BME280;50436;50.618;7.932;2024-01-25T04:47:49;97604.19;;;4.54;100.00
64141;BME280;50436;50.618;7.932;2024-01-25T04:50:35;97592.59;;;4.55;100.00
64141;BME280;50436;50.618;7.932;2024-01-25T04:53:21;97599.25;;;4.51;100.00
64141;BME280;50436;50.618;7.932;2024-01-25T04:56:06;97599.25;;;4.51;100.00
64141;BME280;50436;50.618;7.932;2024-01-25T04:58:52;97612.69;;;4.50;100.00
64141;BME280;50436;50.618;7.932;2024-01-25T05:01:38;97616.34;;;4.48;100.00
64141;BME280;50436;50.618;7.932;2024-01-25T05:04:24;97613.50;;;4.50;100.00
64141;BME280;50436;50.618;7.932;2024-01-25T05:07:10;97609.41;;;4.47;100.00
64141;BME280;50436;50.618;7.932;2024-01-25T05:09:56;97614.50;;;4.49;100.00
64141;BME280;50436;50.618;7.932;2024-01-25T05:12:42;97618.38;;;4.46;100.00
64141;BME280;50436;50.618;7.932;2024-01-25T05:15:27;97606.31;;;4.44;100.00
64141;BME280;50436;50.618;7.932;2024-01-25T05:18:13;97604.38;;;4.38;100.00
64141;BME280;50436;50.618;7.932;2024-01-25T05:20:59;97621.09;;;4.38;100.00
64141;BME280;50436;50.618;7.932;2024-01-25T05:23:45;97611.31;;;4.39;100.00
64141;BME280;50436;50.618;7.932;2024-01-25T05:26:31;97613.34;;;4.37;100.00
64141;BME280;50436;50.618;7.932;2024-01-25T05:29:17;97609.94;;;4.28;100.00
64141;BME280;50436;50.618;7.932;2024-01-25T05:32:03;97618.41;;;4.24;100.00
64141;BME280;50436;50.618;7.932;2024-01-25T05:34:49;97610.63;;;4.07;100.00
64141;BME280;50436;50.618;7.932;2024-01-25T05:37:35;97617.16;;;3.97;100.00
64141;BME280;50436;50.618;7.932;2024-01-25T05:40:21;97613.88;;;3.95;100.00
64141;BME280;50436;50.618;7.932;2024-01-25T05:43:06;97626.78;;;3.98;100.00
64141;BME280;50436;50.618;7.932;2024-01-25T05:45:52;97637.81;;;4.01;100.00
64141;BME280;50436;50.618;7.932;2024-01-25T05:48:38;97636.38;;;3.99;100.00
64141;BME280;50436;50.618;7.932;2024-01-25T05:51:25;97641.28;;;4.02;100.00
64141;BME280;50436;50.618;7.932;2024-01-25T05:54:10;97649.44;;;4.00;100.00
64141;BME280;50436;50.618;7.932;2024-01-25T05:56:56;97650.69;;;4.04;100.00
64141;BME280;50436;50.618;7.932;2024-01-25T05:59:42;97650.34;;;4.07;100.00
64141;BME280;50436;50.618;7.932;2024-01-25T06:02:28;97652.00;;;4.08;100.00
64141;BME280;50436;50.618;7.932;2024-01-25T06:05:14;97656.19;;;4.03;100.00
64141;BME280;50436;50.618;7.932;2024-01-25T06:08:00;97664.69;;;3.98;100.00
64141;BME280;50436;50.618;7.932;2024-01-25T06:10:46;97664.69;;;3.98;100.00
64141;BME280;50436;50.618;7.932;2024-01-25T06:13:31;97662.53;;;3.94;100.00
64141;BME280;50436;50.618;7.932;2024-01-25T06:16:17;97667.31;;;3.98;100.00
64141;BME280;50436;50.618;7.932;2024-01-25T06:19:03;97675.28;;;3.98;100.00
64141;BME280;50436;50.618;7.932;2024-01-25T06:21:50;97669.84;;;3.91;100.00
64141;BME280;50436;50.618;7.932;2024-01-25T06:24:35;97675.16;;;3.91;100.00
64141;BME280;50436;50.618;7.932;2024-01-25T06:27:21;97682.91;;;3.93;100.00
64141;BME280;50436;50.618;7.932;2024-01-25T06:30:07;97676.78;;;3.92;100.00
64141;BME280;50436;50.618;7.932;2024-01-25T06:32:53;97677.22;;;3.81;100.00
64141;BME280;50436;50.618;7.932;2024-01-25T06:35:39;97672.94;;;3.72;100.00
64141;BME280;50436;50.618;7.932;2024-01-25T06:38:25;97665.75;;;3.58;100.00
64141;BME280;50436;50.618;7.932;2024-01-25T06:41:11;97678.22;;;3.49;100.00
64141;BME280;50436;50.618;7.932;2024-01-25T06:43:57;97675.75;;;3.48;100.00
64141;BME280;50436;50.618;7.932;2024-01-25T06:46:43;97685.84;;;3.52;100.00
64141;BME280;50436;50.618;7.932;2024-01-25T06:49:28;97685.00;;;3.52;100.00
64141;BME280;50436;50.618;7.932;2024-01-25T06:52:14;97688.69;;;3.43;100.00
64141;BME280;50436;50.618;7.932;2024-01-25T06:55:00;97700.75;;;3.45;100.00
64141;BME280;50436;50.618;7.932;2024-01-25T06:57:46;97705.50;;;3.50;100.00
64141;BME280;50436;50.618;7.932;2024-01-25T07:00:32;97704.31;;;3.60;100.00
64141;BME280;50436;50.618;7.932;2024-01-25T07:03:18;97697.97;;;3.70;100.00
64141;BME280;50436;50.618;7.932;2024-01-25T07:06:04;97701.78;;;3.67;100.00
64141;BME280;50436;50.618;7.932;2024-01-25T07:08:50;97693.22;;;3.57;100.00
64141;BME280;50436;50.618;7.932;2024-01-25T07:11:36;97691.16;;;3.44;100.00
64141;BME280;50436;50.618;7.932;2024-01-25T07:14:22;97689.84;;;3.40;100.00
64141;BME280;50436;50.618;7.932;2024-01-25T07:17:08;97693.84;;;3.36;100.00
64141;BME280;50436;50.618;7.932;2024-01-25T07:19:53;97700.44;;;3.40;100.00
64141;BME280;50436;50.618;7.932;2024-01-25T07:22:39;97698.16;;;3.37;100.00
64141;BME280;50436;50.618;7.932;2024-01-25T07:25:25;97711.50;;;3.44;100.00
64141;BME280;50436;50.618;7.932;2024-01-25T07:28:11;97708.28;;;3.56;100.00
64141;BME280;50436;50.618;7.932;2024-01-25T07:30:57;97708.72;;;3.68;100.00
64141;BME280;50436;50.618;7.932;2024-01-25T07:33:43;97705.44;;;3.66;100.00
64141;BME280;50436;50.618;7.932;2024-01-25T07:36:29;97699.06;;;3.52;100.00
64141;BME280;50436;50.618;7.932;2024-01-25T07:39:15;97705.41;;;3.43;100.00
64141;BME280;50436;50.618;7.932;2024-01-25T07:42:01;97703.25;;;3.39;100.00
64141;BME280;50436;50.618;7.932;2024-01-25T07:44:47;97701.78;;;3.36;100.00
64141;BME280;50436;50.618;7.932;2024-01-25T07:47:33;97707.56;;;3.40;100.00
64141;BME280;50436;50.618;7.932;2024-01-25T07:50:19;97708.00;;;3.51;100.00
64141;BME280;50436;50.618;7.932;2024-01-25T07:53:04;97698.84;;;3.62;100.00
64141;BME280;50436;50.618;7.932;2024-01-25T07:55:50;97703.72;;;3.73;100.00
64141;BME280;50436;50.618;7.932;2024-01-25T07:58:36;97695.56;;;3.83;100.00
64141;BME280;50436;50.618;7.932;2024-01-25T08:01:22;97685.81;;;3.83;100.00
64141;BME280;50436;50.618;7.932;2024-01-25T08:04:08;97697.69;;;3.87;100.00
64141;BME280;50436;50.618;7.932;2024-01-25T08:06:54;97696.84;;;3.87;100.00
64141;BME280;50436;50.618;7.932;2024-01-25T08:09:40;97694.75;;;4.05;100.00
64141;BME280;50436;50.618;7.932;2024-01-25T08:12:26;97702.97;;;4.10;100.00
64141;BME280;50436;50.618;7.932;2024-01-25T08:15:12;97703.47;;;4.14;100.00
64141;BME280;50436;50.618;7.932;2024-01-25T08:17:58;97701.97;;;4.11;100.00
64141;BME280;50436;50.618;7.932;2024-01-25T08:20:44;97702.34;;;4.08;100.00
64141;BME280;50436;50.618;7.932;2024-01-25T08:23:30;97707.25;;;4.11;100.00
64141;BME280;50436;50.618;7.932;2024-01-25T08:26:16;97714.28;;;4.04;100.00
64141;BME280;50436;50.618;7.932;2024-01-25T08:29:02;97713.19;;;3.99;100.00
64141;BME280;50436;50.618;7.932;2024-01-25T08:31:48;97723.72;;;4.07;100.00
64141;BME280;50436;50.618;7.932;2024-01-25T08:34:33;97722.28;;;4.19;100.00
64141;BME280;50436;50.618;7.932;2024-01-25T08:37:19;97719.41;;;4.29;100.00
64141;BME280;50436;50.618;7.932;2024-01-25T08:40:05;97721.00;;;4.38;100.00
64141;BME280;50436;50.618;7.932;2024-01-25T08:42:51;97728.81;;;4.31;100.00
64141;BME280;50436;50.618;7.932;2024-01-25T08:45:37;97733.59;;;4.36;100.00
64141;BME280;50436;50.618;7.932;2024-01-25T08:48:23;97735.06;;;4.38;100.00
64141;BME280;50436;50.618;7.932;2024-01-25T08:51:10;97734.88;;;4.40;100.00
64141;BME280;50436;50.618;7.932;2024-01-25T08:53:56;97720.63;;;4.41;100.00
64141;BME280;50436;50.618;7.932;2024-01-25T08:56:42;97729.13;;;4.51;100.00
64141;BME280;50436;50.618;7.932;2024-01-25T08:59:28;97728.03;;;4.45;100.00
64141;BME280;50436;50.618;7.932;2024-01-25T09:02:15;97725.50;;;4.52;100.00
64141;BME280;50436;50.618;7.932;2024-01-25T09:05:01;97712.88;;;4.54;100.00
64141;BME280;50436;50.618;7.932;2024-01-25T09:07:47;97722.47;;;4.55;100.00
64141;BME280;50436;50.618;7.932;2024-01-25T09:10:33;97721.84;;;4.53;100.00
64141;BME280;50436;50.618;7.932;2024-01-25T09:13:23;97722.03;;;4.52;100.00
64141;BME280;50436;50.618;7.932;2024-01-25T09:16:10;97737.69;;;4.61;100.00
64141;BME280;50436;50.618;7.932;2024-01-25T09:18:55;97732.00;;;4.64;100.00
64141;BME280;50436;50.618;7.932;2024-01-25T09:21:41;97730.09;;;4.73;100.00
64141;BME280;50436;50.618;7.932;2024-01-25T09:24:27;97726.09;;;4.77;100.00
64141;BME280;50436;50.618;7.932;2024-01-25T09:27:14;97728.47;;;4.87;100.00
64141;BME280;50436;50.618;7.932;2024-01-25T09:30:02;97728.59;;;4.93;100.00
64141;BME280;50436;50.618;7.932;2024-01-25T09:32:49;97740.84;;;4.94;100.00
64141;BME280;50436;50.618;7.932;2024-01-25T09:35:34;97737.75;;;4.91;100.00
64141;BME280;50436;50.618;7.932;2024-01-25T09:38:20;97740.38;;;4.91;100.00
64141;BME280;50436;50.618;7.932;2024-01-25T09:41:06;97745.13;;;4.95;100.00
64141;BME280;50436;50.618;7.932;2024-01-25T09:43:52;97748.19;;;5.07;100.00
64141;BME280;50436;50.618;7.932;2024-01-25T09:46:39;97750.47;;;5.25;100.00
64141;BME280;50436;50.618;7.932;2024-01-25T09:49:26;97746.16;;;5.39;100.00
64141;BME280;50436;50.618;7.932;2024-01-25T09:52:13;97744.56;;;5.44;100.00
64141;BME280;50436;50.618;7.932;2024-01-25T09:54:59;97752.00;;;5.49;100.00
64141;BME280;50436;50.618;7.932;2024-01-25T09:57:46;97750.97;;;5.65;100.00
64141;BME280;50436;50.618;7.932;2024-01-25T10:00:32;97747.97;;;5.53;100.00
64141;BME280;50436;50.618;7.932;2024-01-25T10:03:18;97743.13;;;5.42;100.00
64141;BME280;50436;50.618;7.932;2024-01-25T10:06:05;97752.91;;;5.41;100.00
64141;BME280;50436;50.618;7.932;2024-01-25T10:08:52;97760.97;;;5.63;100.00
64141;BME280;50436;50.618;7.932;2024-01-25T10:11:38;97750.25;;;6.28;100.00
64141;BME280;50436;50.618;7.932;2024-01-25T10:14:24;97761.97;;;6.34;100.00
64141;BME280;50436;50.618;7.932;2024-01-25T10:17:10;97771.06;;;5.88;100.00
64141;BME280;50436;50.618;7.932;2024-01-25T10:19:56;97768.44;;;5.74;100.00
64141;BME280;50436;50.618;7.932;2024-01-25T10:22:43;97775.59;;;5.73;100.00
64141;BME280;50436;50.618;7.932;2024-01-25T10:25:33;97775.47;;;5.96;100.00
64141;BME280;50436;50.618;7.932;2024-01-25T10:28:19;97761.41;;;7.16;100.00
64141;BME280;50436;50.618;7.932;2024-01-25T10:31:05;97768.09;;;8.35;100.00
64141;BME280;50436;50.618;7.932;2024-01-25T10:33:55;97761.34;;;9.19;100.00
64141;BME280;50436;50.618;7.932;2024-01-25T10:36:41;97758.16;;;9.62;100.00
64141;BME280;50436;50.618;7.932;2024-01-25T10:39:29;97768.53;;;8.92;100.00
64141;BME280;50436;50.618;7.932;2024-01-25T10:42:15;97774.38;;;9.67;100.00
64141;BME280;50436;50.618;7.932;2024-01-25T10:45:01;97769.09;;;9.47;100.00
64141;BME280;50436;50.618;7.932;2024-01-25T10:47:50;97769.31;;;9.39;100.00
64141;BME280;50436;50.618;7.932;2024-01-25T10:50:36;97780.41;;;10.07;100.00
64141;BME280;50436;50.618;7.932;2024-01-25T10:53:23;97779.19;;;10.41;100.00
64141;BME280;50436;50.618;7.932;2024-01-25T10:56:10;97774.97;;;11.15;100.00
64141;BME280;50436;50.618;7.932;2024-01-25T10:58:57;97774.41;;;11.50;100.00
64141;BME280;50436;50.618;7.932;2024-01-25T11:01:46;97769.91;;;11.43;100.00
64141;BME280;50436;50.618;7.932;2024-01-25T11:04:33;97757.97;;;10.78;100.00
64141;BME280;50436;50.618;7.932;2024-01-25T11:07:18;97752.56;;;9.76;100.00
64141;BME280;50436;50.618;7.932;2024-01-25T11:10:05;97739.75;;;9.85;100.00
64141;BME280;50436;50.618;7.932;2024-01-25T11:15:38;97724.22;;;10.45;100.00
64141;BME280;50436;50.618;7.932;2024-01-25T11:18:27;97725.81;;;10.21;100.00
64141;BME280;50436;50.618;7.932;2024-01-25T11:21:24;97723.94;;;9.84;100.00
64141;BME280;50436;50.618;7.932;2024-01-25T11:24:21;97724.69;;;9.46;100.00
64141;BME280;50436;50.618;7.932;2024-01-25T11:27:09;97722.09;;;9.26;100.00
64141;BME280;50436;50.618;7.932;2024-01-25T11:29:56;97723.53;;;9.15;100.00
64141;BME280;50436;50.618;7.932;2024-01-25T11:32:42;97718.00;;;9.10;100.00
64141;BME280;50436;50.618;7.932;2024-01-25T11:35:28;97708.19;;;8.91;100.00
64141;BME280;50436;50.618;7.932;2024-01-25T11:38:14;97710.25;;;8.76;100.00
64141;BME280;50436;50.618;7.932;2024-01-25T11:41:00;97707.22;;;9.50;100.00
64141;BME280;50436;50.618;7.932;2024-01-25T11:43:48;97702.06;;;10.00;100.00
64141;BME280;50436;50.618;7.932;2024-01-25T11:46:35;97702.69;;;10.33;100.00
64141;BME280;50436;50.618;7.932;2024-01-25T11:49:24;97697.78;;;11.42;100.00
64141;BME280;50436;50.618;7.932;2024-01-25T11:52:10;97703.50;;;12.31;98.59
64141;BME280;50436;50.618;7.932;2024-01-25T11:54:56;97696.38;;;13.25;89.16
64141;BME280;50436;50.618;7.932;2024-01-25T11:57:44;97691.97;;;14.44;84.47
64141;BME280;50436;50.618;7.932;2024-01-25T12:00:31;97670.41;;;15.28;84.85
64141;BME280;50436;50.618;7.932;2024-01-25T12:03:18;97670.97;;;15.52;75.81
64141;BME280;50436;50.618;7.932;2024-01-25T12:06:04;97674.66;;;15.24;84.05
64141;BME280;50436;50.618;7.932;2024-01-25T12:08:50;97678.75;;;13.98;79.20
64141;BME280;50436;50.618;7.932;2024-01-25T12:11:38;97678.06;;;13.62;90.82
64141;BME280;50436;50.618;7.932;2024-01-25T12:14:27;97673.56;;;13.79;81.89
64141;BME280;50436;50.618;7.932;2024-01-25T12:17:13;97666.72;;;14.79;85.49
64141;BME280;50436;50.618;7.932;2024-01-25T12:19:59;97668.13;;;15.20;85.11
64141;BME280;50436;50.618;7.932;2024-01-25T12:22:48;97663.03;;;14.52;82.18
64141;BME280;50436;50.618;7.932;2024-01-25T12:25:39;97676.72;;;13.76;87.98
64141;BME280;50436;50.618;7.932;2024-01-25T12:28:27;97662.81;;;13.16;89.63
64141;BME280;50436;50.618;7.932;2024-01-25T12:31:13;97648.31;;;12.58;93.87
64141;BME280;50436;50.618;7.932;2024-01-25T12:34:00;97644.94;;;12.74;93.02
64141;BME280;50436;50.618;7.932;2024-01-25T12:36:46;97647.09;;;12.19;88.88
64141;BME280;50436;50.618;7.932;2024-01-25T12:39:32;97656.72;;;11.78;94.10
64141;BME280;50436;50.618;7.932;2024-01-25T12:42:18;97652.38;;;11.95;95.13
64141;BME280;50436;50.618;7.932;2024-01-25T12:45:04;97649.34;;;12.34;96.12
64141;BME280;50436;50.618;7.932;2024-01-25T12:47:50;97633.84;;;11.94;93.84
64141;BME280;50436;50.618;7.932;2024-01-25T12:50:37;97630.53;;;11.62;97.75
64141;BME280;50436;50.618;7.932;2024-01-25T12:53:23;97626.88;;;10.90;100.00
64141;BME280;50436;50.618;7.932;2024-01-25T12:56:08;97631.84;;;10.43;100.00
64141;BME280;50436;50.618;7.932;2024-01-25T12:58:54;97616.59;;;10.43;100.00
64141;BME280;50436;50.618;7.932;2024-01-25T13:01:40;97619.47;;;10.42;100.00
64141;BME280;50436;50.618;7.932;2024-01-25T13:04:27;97629.19;;;10.61;100.00
64141;BME280;50436;50.618;7.932;2024-01-25T13:07:12;97628.31;;;10.67;100.00
64141;BME280;50436;50.618;7.932;2024-01-25T13:09:58;97638.22;;;10.10;100.00
64141;BME280;50436;50.618;7.932;2024-01-25T13:12:44;97629.06;;;9.93;100.00
64141;BME280;50436;50.618;7.932;2024-01-25T13:15:30;97633.91;;;9.77;100.00
64141;BME280;50436;50.618;7.932;2024-01-25T13:18:16;97629.59;;;9.76;100.00
64141;BME280;50436;50.618;7.932;2024-01-25T13:21:02;97621.88;;;9.55;100.00
64141;BME280;50436;50.618;7.932;2024-01-25T13:23:47;97623.09;;;9.14;100.00
64141;BME280;50436;50.618;7.932;2024-01-25T13:26:36;97636.34;;;8.76;100.00
64141;BME280;50436;50.618;7.932;2024-01-25T13:29:22;97647.81;;;8.97;100.00
64141;BME280;50436;50.618;7.932;2024-01-25T13:32:08;97634.25;;;8.85;100.00
64141;BME280;50436;50.618;7.932;2024-01-25T13:34:54;97619.50;;;8.82;100.00
64141;BME280;50436;50.618;7.932;2024-01-25T13:37:40;97635.50;;;8.89;100.00
64141;BME280;50436;50.618;7.932;2024-01-25T13:40:26;97623.22;;;8.75;100.00
64141;BME280;50436;50.618;7.932;2024-01-25T13:43:12;97633.88;;;8.75;100.00
64141;BME280;50436;50.618;7.932;2024-01-25T13:45:58;97635.53;;;8.56;100.00
64141;BME280;50436;50.618;7.932;2024-01-25T13:48:44;97625.69;;;8.30;100.00
64141;BME280;50436;50.618;7.932;2024-01-25T13:51:31;97629.38;;;8.29;100.00
64141;BME280;50436;50.618;7.932;2024-01-25T13:54:17;97623.00;;;8.23;100.00
64141;BME280;50436;50.618;7.932;2024-01-25T13:57:03;97628.59;;;8.35;100.00
64141;BME280;50436;50.618;7.932;2024-01-25T13:59:49;97619.31;;;8.31;100.00
64141;BME280;50436;50.618;7.932;2024-01-25T14:02:35;97615.00;;;8.30;100.00
64141;BME280;50436;50.618;7.932;2024-01-25T14:05:21;97605.59;;;8.27;100.00
64141;BME280;50436;50.618;7.932;2024-01-25T14:08:07;97604.78;;;8.27;100.00
64141;BME280;50436;50.618;7.932;2024-01-25T14:10:53;97586.09;;;7.80;100.00
64141;BME280;50436;50.618;7.932;2024-01-25T14:13:39;97594.88;;;7.74;100.00
64141;BME280;50436;50.618;7.932;2024-01-25T14:16:24;97594.31;;;8.05;100.00
64141;BME280;50436;50.618;7.932;2024-01-25T14:19:10;97607.63;;;7.92;100.00
64141;BME280;50436;50.618;7.932;2024-01-25T14:21:56;97610.91;;;8.07;100.00
64141;BME280;50436;50.618;7.932;2024-01-25T14:24:42;97607.44;;;8.27;100.00
64141;BME280;50436;50.618;7.932;2024-01-25T14:27:28;97608.25;;;8.34;100.00
64141;BME280;50436;50.618;7.932;2024-01-25T14:30:14;97602.31;;;8.25;100.00
64141;BME280;50436;50.618;7.932;2024-01-25T14:33:01;97596.34;;;8.03;100.00
64141;BME280;50436;50.618;7.932;2024-01-25T14:35:48;97604.69;;;7.47;100.00
64141;BME280;50436;50.618;7.932;2024-01-25T14:38:34;97606.44;;;7.27;100.00
64141;BME280;50436;50.618;7.932;2024-01-25T14:41:19;97613.94;;;7.04;100.00
64141;BME280;50436;50.618;7.932;2024-01-25T14:44:05;97592.56;;;6.90;100.00